createdAt,value
2019-06-20T00:01:48.391Z,15.03
2019-06-20T00:07:04.072Z,11.20
2019-06-20T00:12:13.009Z,16.25
2019-06-20T00:17:34.630Z,12.98
2019-06-20T00:22:50.768Z,15.40
2019-06-20T00:28:00.610Z,26.02
2019-06-20T00:33:15.332Z,17.80
2019-06-20T00:38:26.079Z,20.37
2019-06-20T00:43:40.949Z,24.87
2019-06-20T00:49:02.026Z,23.55
2019-06-20T00:54:17.057Z,21.62
2019-06-20T00:59:29.349Z,18.45
2019-06-20T01:04:41.752Z,22.73
2019-06-20T01:09:54.339Z,19.87
2019-06-20T01:15:14.786Z,24.70
2019-06-20T01:20:24.011Z,24.87
2019-06-20T01:25:46.996Z,22.02
2019-06-20T01:30:58.410Z,29.85
2019-06-20T01:36:08.545Z,27.05
2019-06-20T01:41:16.986Z,28.98
2019-06-20T01:46:31.269Z,26.33
2019-06-20T01:51:46.739Z,29.85
2019-06-20T01:57:00.235Z,28.00
2019-06-20T02:02:10.418Z,30.45
2019-06-20T02:07:18.986Z,30.68
2019-06-20T02:12:28.184Z,26.65
2019-06-20T02:17:38.115Z,24.10
2019-06-20T02:22:57.199Z,31.45
2019-06-20T02:28:05.432Z,38.55
2019-06-20T02:33:19.925Z,36.35
2019-06-20T02:38:35.405Z,35.75
2019-06-20T02:43:52.074Z,31.62
2019-06-20T02:49:00.357Z,26.30
2019-06-20T02:54:10.643Z,31.15
2019-06-20T02:59:18.563Z,27.35
2019-06-20T03:04:28.292Z,22.65
2019-06-20T03:09:45.753Z,23.32
2019-06-20T03:15:01.033Z,21.82
2019-06-20T03:20:15.348Z,20.17
2019-06-20T03:25:48.170Z,18.92
2019-06-20T03:31:01.384Z,23.07
2019-06-20T03:36:12.618Z,27.25
2019-06-20T03:41:29.633Z,27.45
2019-06-20T03:46:40.011Z,29.48
2019-06-20T03:51:53.416Z,19.70
2019-06-20T03:57:04.742Z,22.70
2019-06-20T04:02:19.966Z,24.77
2019-06-20T04:07:35.680Z,23.20
2019-06-20T04:12:45.131Z,25.20
2019-06-20T04:18:00.520Z,27.62
2019-06-20T04:23:10.552Z,26.00
2019-06-20T04:28:27.521Z,21.05
2019-06-20T04:33:38.391Z,23.90
2019-06-20T04:38:50.617Z,20.77
2019-06-20T04:44:02.183Z,18.67
2019-06-20T04:49:13.439Z,22.45
2019-06-20T04:54:24.269Z,29.95
2019-06-20T04:59:32.612Z,37.95
2019-06-20T05:04:46.061Z,32.25
2019-06-20T05:09:56.882Z,47.17
2019-06-20T05:15:09.192Z,38.08
2019-06-20T05:20:26.556Z,37.70
2019-06-20T05:25:38.404Z,39.90
2019-06-20T05:30:52.570Z,40.12
2019-06-20T05:36:05.742Z,48.13
2019-06-20T05:41:20.043Z,37.80
2019-06-20T05:46:28.551Z,42.65
2019-06-20T05:51:45.335Z,38.45
2019-06-20T05:56:58.027Z,38.08
2019-06-20T06:02:14.395Z,35.98
2019-06-20T06:07:27.442Z,35.98
2019-06-20T06:12:36.773Z,40.80
2019-06-20T06:17:48.623Z,40.30
2019-06-20T06:23:06.217Z,40.67
2019-06-20T06:28:21.314Z,39.05
2019-06-20T06:33:30.023Z,36.15
2019-06-20T06:38:39.498Z,37.95
2019-06-20T06:43:48.838Z,34.27
2019-06-20T06:49:02.379Z,33.98
2019-06-20T06:54:16.809Z,34.55
2019-06-20T06:59:27.565Z,34.33
2019-06-20T07:04:56.522Z,32.03
2019-06-20T07:10:14.099Z,29.87
2019-06-20T07:15:27.498Z,31.68
2019-06-20T07:20:44.263Z,28.10
2019-06-20T07:25:56.261Z,30.75
2019-06-20T07:31:13.964Z,29.40
2019-06-20T07:36:24.038Z,25.37
2019-06-20T07:41:52.168Z,25.17
2019-06-20T07:47:17.034Z,22.98
2019-06-20T07:52:24.513Z,22.60
2019-06-20T07:57:38.556Z,20.88
2019-06-20T08:02:49.279Z,20.40
2019-06-20T08:07:58.160Z,23.15
2019-06-20T08:13:08.336Z,18.40
2019-06-20T08:18:14.432Z,20.57
2019-06-20T08:23:45.638Z,20.52
2019-06-20T08:29:10.430Z,19.07
2019-06-20T08:34:08.390Z,18.07
2019-06-20T08:39:22.678Z,20.45
2019-06-20T08:44:36.326Z,17.00
2019-06-20T08:49:52.913Z,14.68
2019-06-20T08:55:05.951Z,14.03
2019-06-20T09:00:18.912Z,13.93
2019-06-20T09:05:34.151Z,16.07
2019-06-20T09:10:48.842Z,15.75
2019-06-20T09:16:00.829Z,18.87
2019-06-20T09:21:11.662Z,19.65
2019-06-20T09:26:27.196Z,17.87
2019-06-20T09:31:41.100Z,19.32
2019-06-20T09:36:59.416Z,17.12
2019-06-20T09:42:29.810Z,15.38
2019-06-20T09:47:50.430Z,15.93
2019-06-20T09:53:08.043Z,13.93
2019-06-20T09:58:21.318Z,14.10
2019-06-20T10:03:35.605Z,13.15
2019-06-20T10:08:52.277Z,15.18
2019-06-20T10:14:04.851Z,17.80
2019-06-20T10:19:22.275Z,15.28
2019-06-20T10:24:30.609Z,16.37
2019-06-20T10:29:48.978Z,12.93
2019-06-20T10:35:05.762Z,11.80
2019-06-20T10:41:13.374Z,9.78
2019-06-20T10:46:30.113Z,10.08
2019-06-20T10:51:45.990Z,8.05
2019-06-20T10:57:03.393Z,8.83
2019-06-20T11:02:15.603Z,7.85
2019-06-20T11:07:23.139Z,7.35
2019-06-20T11:12:45.542Z,6.75
2019-06-20T11:17:56.909Z,5.72
2019-06-20T11:23:12.270Z,6.67
2019-06-20T11:28:24.032Z,5.70
2019-06-20T11:33:39.014Z,7.03
2019-06-20T11:38:51.072Z,6.22
2019-06-20T11:44:03.873Z,6.87
2019-06-20T11:49:23.268Z,6.97
2019-06-20T11:54:38.722Z,6.75
2019-06-20T11:59:47.936Z,7.30
2019-06-20T12:05:01.431Z,7.35
2019-06-20T12:10:15.954Z,6.12
2019-06-20T12:15:28.800Z,5.75
2019-06-20T12:20:48.724Z,6.33
2019-06-20T12:26:03.621Z,6.80
2019-06-20T12:31:20.556Z,6.95
2019-06-20T12:36:30.485Z,6.83
2019-06-20T12:41:41.509Z,6.40
2019-06-20T12:46:53.161Z,5.50
2019-06-20T12:52:09.511Z,5.53
2019-06-20T13:02:54.680Z,5.00
2019-06-20T13:08:13.456Z,5.00
2019-06-20T13:13:28.342Z,4.85
2019-06-20T13:18:46.273Z,4.97
2019-06-20T13:23:58.370Z,5.50
2019-06-20T13:29:10.053Z,4.50
2019-06-20T13:34:25.320Z,4.05
2019-06-20T13:39:38.513Z,3.98
2019-06-20T13:44:58.668Z,3.30
2019-06-20T13:50:11.419Z,2.55
2019-06-20T13:55:22.068Z,2.15
2019-06-20T14:00:32.810Z,1.22
2019-06-20T14:05:42.861Z,1.20
2019-06-20T14:10:54.507Z,1.15
2019-06-20T14:16:08.758Z,1.45
2019-06-20T14:21:21.967Z,1.02
2019-06-20T14:26:36.206Z,1.82
2019-06-20T14:31:53.777Z,1.60
2019-06-20T14:37:07.491Z,1.50
2019-06-20T14:42:16.363Z,1.35
2019-06-20T14:47:29.846Z,1.95
2019-06-20T14:52:38.111Z,2.30
2019-06-20T14:57:55.251Z,1.90
2019-06-20T15:03:09.857Z,2.10
2019-06-20T15:08:24.966Z,2.00
2019-06-20T15:13:46.210Z,1.82
2019-06-20T15:18:57.239Z,2.20
2019-06-20T15:24:14.082Z,1.85
2019-06-20T15:29:28.103Z,1.95
2019-06-20T15:34:42.660Z,2.42
2019-06-20T15:39:51.772Z,1.70
2019-06-20T15:45:05.507Z,2.15
2019-06-20T15:50:13.618Z,1.98
2019-06-20T15:55:25.865Z,2.22
2019-06-20T16:00:46.800Z,2.17
2019-06-20T16:06:02.058Z,2.65
2019-06-20T16:11:12.416Z,2.35
2019-06-20T16:16:20.944Z,2.70
2019-06-20T16:21:35.314Z,2.20
2019-06-20T16:26:50.681Z,2.83
2019-06-20T16:31:59.840Z,1.80
2019-06-20T16:37:15.656Z,2.75
2019-06-20T16:42:32.388Z,3.52
2019-06-20T16:47:42.943Z,3.10
2019-06-20T16:52:50.393Z,2.40
2019-06-20T16:58:10.528Z,2.60
2019-06-20T17:03:40.778Z,2.67
2019-06-20T17:08:41.480Z,2.60
2019-06-20T17:13:54.857Z,2.65
2019-06-20T17:19:08.815Z,2.62
2019-06-20T17:24:20.464Z,2.50
2019-06-20T17:29:33.233Z,2.85
2019-06-20T17:34:48.451Z,3.40
2019-06-20T17:40:12.863Z,2.92
2019-06-20T17:45:23.152Z,2.90
2019-06-20T17:50:35.561Z,2.65
2019-06-20T17:55:49.718Z,2.90
2019-06-20T18:01:02.107Z,3.20
2019-06-20T18:06:17.316Z,3.50
2019-06-20T18:11:31.084Z,4.62
2019-06-20T18:16:49.649Z,4.17
2019-06-20T18:21:59.898Z,3.08
2019-06-20T18:27:18.688Z,2.75
2019-06-20T18:32:35.589Z,2.40
2019-06-20T18:37:49.727Z,2.47
2019-06-20T18:43:03.329Z,5.55
2019-06-20T18:48:18.527Z,6.42
2019-06-20T18:53:31.661Z,7.67
2019-06-20T18:58:40.829Z,9.80
2019-06-20T19:03:52.029Z,8.23
2019-06-20T19:09:09.386Z,7.67
2019-06-20T19:14:27.213Z,8.58
2019-06-20T19:19:35.356Z,10.63
2019-06-20T19:24:48.058Z,11.00
2019-06-20T19:30:00.232Z,10.18
2019-06-20T19:35:11.709Z,9.58
2019-06-20T19:40:24.231Z,10.95
2019-06-20T19:45:36.189Z,10.85
2019-06-20T19:50:47.375Z,8.10
2019-06-20T19:56:05.524Z,9.58
2019-06-20T20:01:18.075Z,7.83
2019-06-20T20:06:31.658Z,7.83
2019-06-20T20:11:38.453Z,5.40
2019-06-20T20:16:54.147Z,6.83
2019-06-20T20:22:09.389Z,8.18
2019-06-20T20:27:25.076Z,6.10
2019-06-20T20:32:31.762Z,6.75
2019-06-20T20:37:41.491Z,8.38
2019-06-20T20:42:57.256Z,10.45
2019-06-20T20:48:10.375Z,6.90
2019-06-20T20:53:32.050Z,6.85
2019-06-20T20:58:44.507Z,6.45
2019-06-20T21:04:00.902Z,7.92
2019-06-20T21:09:14.456Z,8.13
2019-06-20T21:14:23.358Z,7.08
2019-06-20T21:19:39.435Z,10.58
2019-06-20T21:24:47.308Z,7.15
2019-06-20T21:29:54.805Z,9.30
2019-06-20T21:35:10.218Z,9.75
2019-06-20T21:40:23.555Z,9.03
2019-06-20T21:45:37.569Z,8.65
2019-06-20T21:50:52.934Z,7.70
2019-06-20T21:56:04.118Z,5.25
2019-06-20T22:01:19.794Z,5.33
2019-06-20T22:06:33.984Z,4.95
2019-06-20T22:11:46.691Z,4.28
2019-06-20T22:16:58.348Z,4.20
2019-06-20T22:22:11.825Z,4.10
2019-06-20T22:27:22.586Z,3.85
2019-06-20T22:32:35.112Z,3.72
2019-06-20T22:37:48.356Z,3.77
2019-06-20T22:43:05.547Z,5.85
2019-06-20T22:48:22.345Z,4.47
2019-06-20T22:53:34.918Z,4.10
2019-06-20T22:58:41.983Z,4.67
2019-06-20T23:03:52.469Z,4.22
2019-06-20T23:09:03.031Z,4.50
2019-06-20T23:14:17.978Z,4.60
2019-06-20T23:19:34.375Z,4.35
2019-06-20T23:24:46.417Z,5.15
2019-06-20T23:29:58.792Z,5.78
2019-06-20T23:35:11.935Z,5.17
2019-06-20T23:40:20.490Z,4.60
2019-06-20T23:45:32.318Z,5.37
2019-06-20T23:50:42.917Z,6.30
2019-06-20T23:55:52.519Z,5.60
